This is the latest recevied weather packets stored in our database for station/object N7NKE. If no packets are shown the sender has not sent any weather packets the latest 10 day(s).
| Time | Temp. | Humidity | Pressure | Rain* | Wind** | Luminosity | Snow |
|---|---|---|---|---|---|---|---|
| 1777550104 | 9.44° C | 85% | 1019 hPa | 0 mm | - | 0 W/m² | - |
| 1777548904 | 9.44° C | 84% | 1019.1 hPa | 0 mm | - | 0 W/m² | - |
| 1777547704 | 10° C | 83% | 1019.2 hPa | 0 mm | - | 0 W/m² | - |
| 1777547405 | 10° C | 83% | 1019.3 hPa | 0 mm | - | 0 W/m² | - |
| 1777545904 | 10° C | 82% | 1019.3 hPa | 0 mm | - | 0 W/m² | - |
| 1777545605 | 10° C | 82% | 1019.3 hPa | 0 mm | - | 0 W/m² | - |
| 1777543805 | 10.56° C | 81% | 1019.3 hPa | 0 mm | - | 0 W/m² | - |
| 1777543504 | 11.11° C | 80% | 1019.3 hPa | 0 mm | - | 0 W/m² | - |
| 1777538705 | 12.78° C | 73% | 1019.6 hPa | 0 mm | - | 0 W/m² | - |
| 1777536304 | 14.44° C | 66% | 1019.5 hPa | 0 mm | - | 0 W/m² | - |
| 1777534504 | 16.11° C | 62% | 1019.4 hPa | 0 mm | - | 0 W/m² | - |
| 1777534204 | 16.11° C | 61% | 1019.4 hPa | 0 mm | - | 0 W/m² | - |
| 1777533304 | 16.11° C | 61% | 1019.5 hPa | 0 mm | - | 0 W/m² | - |
| 1777532704 | 16.11° C | 60% | 1019.5 hPa | 0 mm | - | 0 W/m² | - |
| 1777532404 | 16.67° C | 60% | 1019.5 hPa | 0 mm | - | 0 W/m² | - |
| 1777526704 | 16.67° C | 57% | 1019.9 hPa | 0 mm | - | 0 W/m² | - |
| 1777526405 | 16.67° C | 58% | 1019.9 hPa | 0 mm | - | 0 W/m² | - |
| 1777523404 | 16.67° C | 59% | 1019.9 hPa | 0 mm | - | 0 W/m² | - |
| 1777521605 | 17.22° C | 57% | 1019.6 hPa | 0 mm | - | 0 W/m² | - |
| 1777519505 | 16.67° C | 62% | 1019.4 hPa | 0 mm | - | 0 W/m² | - |
| 1777517704 | 18.33° C | 58% | 1019.2 hPa | 0 mm | - | 11 W/m² | - |
| 1777515005 | 22.22° C | 49% | 1019.3 hPa | 0 mm | - | 127 W/m² | - |
| 1777514405 | 22.22° C | 47% | 1019.3 hPa | 0 mm | - | 127 W/m² | - |
| 1777513505 | 22.22° C | 42% | 1019.4 hPa | 0 mm | - | 185 W/m² | - |
| 1777512005 | 21.67° C | 42% | 1019.7 hPa | 0 mm | - | 227 W/m² | - |
* Rain latest hour (hover to see other rain measurements)
** Current wind speed in m/s (hover to see current wind gust speed)